sensor_id;sensor_type;location;lat;lon;timestamp;P1;durP1;ratioP1;P2;durP2;ratioP2
2872;SDS011;1444;49.166;7.312;2023-10-09T00:01:01;11.63;;;4.87;;
2872;SDS011;1444;49.166;7.312;2023-10-09T00:03:30;10.10;;;4.20;;
2872;SDS011;1444;49.166;7.312;2023-10-09T00:05:57;17.90;;;4.97;;
2872;SDS011;1444;49.166;7.312;2023-10-09T00:08:24;24.00;;;5.83;;
2872;SDS011;1444;49.166;7.312;2023-10-09T00:10:57;7.60;;;3.23;;
2872;SDS011;1444;49.166;7.312;2023-10-09T00:13:38;13.13;;;5.17;;
2872;SDS011;1444;49.166;7.312;2023-10-09T00:16:14;13.20;;;5.83;;
2872;SDS011;1444;49.166;7.312;2023-10-09T00:18:48;10.03;;;5.10;;
2872;SDS011;1444;49.166;7.312;2023-10-09T00:21:15;32.40;;;6.03;;
2872;SDS011;1444;49.166;7.312;2023-10-09T00:23:45;19.30;;;5.03;;
2872;SDS011;1444;49.166;7.312;2023-10-09T00:26:19;21.70;;;4.30;;
2872;SDS011;1444;49.166;7.312;2023-10-09T00:28:46;17.50;;;5.07;;
2872;SDS011;1444;49.166;7.312;2023-10-09T00:31:16;11.80;;;5.90;;
2872;SDS011;1444;49.166;7.312;2023-10-09T00:33:51;8.50;;;4.60;;
2872;SDS011;1444;49.166;7.312;2023-10-09T00:36:19;7.67;;;3.93;;
2872;SDS011;1444;49.166;7.312;2023-10-09T00:38:52;6.83;;;3.87;;
2872;SDS011;1444;49.166;7.312;2023-10-09T00:41:20;6.40;;;3.83;;
2872;SDS011;1444;49.166;7.312;2023-10-09T00:43:50;13.53;;;3.70;;
2872;SDS011;1444;49.166;7.312;2023-10-09T00:46:19;5.50;;;3.60;;
2872;SDS011;1444;49.166;7.312;2023-10-09T00:48:52;43.47;;;5.30;;
2872;SDS011;1444;49.166;7.312;2023-10-09T00:51:21;13.03;;;5.90;;
2872;SDS011;1444;49.166;7.312;2023-10-09T00:53:50;10.60;;;3.83;;
2872;SDS011;1444;49.166;7.312;2023-10-09T00:56:18;17.30;;;5.93;;
2872;SDS011;1444;49.166;7.312;2023-10-09T00:58:55;16.50;;;5.30;;
2872;SDS011;1444;49.166;7.312;2023-10-09T01:01:26;10.00;;;4.40;;
2872;SDS011;1444;49.166;7.312;2023-10-09T01:04:00;17.40;;;4.87;;
2872;SDS011;1444;49.166;7.312;2023-10-09T01:06:35;10.67;;;3.80;;
2872;SDS011;1444;49.166;7.312;2023-10-09T01:09:08;7.93;;;4.17;;
2872;SDS011;1444;49.166;7.312;2023-10-09T01:11:38;16.17;;;5.27;;
2872;SDS011;1444;49.166;7.312;2023-10-09T01:14:13;9.10;;;4.87;;
2872;SDS011;1444;49.166;7.312;2023-10-09T01:16:40;11.03;;;4.17;;
2872;SDS011;1444;49.166;7.312;2023-10-09T01:19:08;6.23;;;3.90;;
2872;SDS011;1444;49.166;7.312;2023-10-09T01:21:45;6.33;;;4.03;;
2872;SDS011;1444;49.166;7.312;2023-10-09T01:24:14;15.80;;;5.40;;
2872;SDS011;1444;49.166;7.312;2023-10-09T01:26:41;10.93;;;4.83;;
2872;SDS011;1444;49.166;7.312;2023-10-09T01:29:12;9.33;;;4.73;;
2872;SDS011;1444;49.166;7.312;2023-10-09T01:31:44;14.27;;;4.50;;
2872;SDS011;1444;49.166;7.312;2023-10-09T01:34:16;13.00;;;3.90;;
2872;SDS011;1444;49.166;7.312;2023-10-09T01:36:49;19.63;;;4.23;;
2872;SDS011;1444;49.166;7.312;2023-10-09T01:39:21;11.87;;;4.40;;
2872;SDS011;1444;49.166;7.312;2023-10-09T01:41:52;28.63;;;5.17;;
2872;SDS011;1444;49.166;7.312;2023-10-09T01:44:24;9.43;;;3.97;;
2872;SDS011;1444;49.166;7.312;2023-10-09T01:46:53;6.17;;;4.03;;
2872;SDS011;1444;49.166;7.312;2023-10-09T01:49:22;9.73;;;3.90;;
2872;SDS011;1444;49.166;7.312;2023-10-09T01:51:56;9.20;;;4.00;;
2872;SDS011;1444;49.166;7.312;2023-10-09T01:54:29;12.60;;;4.00;;
2872;SDS011;1444;49.166;7.312;2023-10-09T01:57:03;5.90;;;3.37;;
2872;SDS011;1444;49.166;7.312;2023-10-09T01:59:36;9.00;;;4.10;;
2872;SDS011;1444;49.166;7.312;2023-10-09T02:02:05;8.50;;;4.47;;
2872;SDS011;1444;49.166;7.312;2023-10-09T02:04:51;27.47;;;4.23;;
2872;SDS011;1444;49.166;7.312;2023-10-09T02:07:19;10.63;;;4.97;;
2872;SDS011;1444;49.166;7.312;2023-10-09T02:09:55;10.23;;;4.70;;
2872;SDS011;1444;49.166;7.312;2023-10-09T02:12:22;21.27;;;4.20;;
2872;SDS011;1444;49.166;7.312;2023-10-09T02:14:50;11.07;;;4.97;;
2872;SDS011;1444;49.166;7.312;2023-10-09T02:17:21;7.30;;;4.40;;
2872;SDS011;1444;49.166;7.312;2023-10-09T02:19:53;10.23;;;3.43;;
2872;SDS011;1444;49.166;7.312;2023-10-09T02:22:20;7.30;;;4.13;;
2872;SDS011;1444;49.166;7.312;2023-10-09T02:24:51;16.63;;;4.13;;
2872;SDS011;1444;49.166;7.312;2023-10-09T02:27:24;14.40;;;4.03;;
2872;SDS011;1444;49.166;7.312;2023-10-09T02:30:21;8.37;;;4.03;;
2872;SDS011;1444;49.166;7.312;2023-10-09T02:32:54;6.40;;;5.03;;
2872;SDS011;1444;49.166;7.312;2023-10-09T02:35:32;7.20;;;3.67;;
2872;SDS011;1444;49.166;7.312;2023-10-09T02:38:03;16.90;;;3.50;;
2872;SDS011;1444;49.166;7.312;2023-10-09T02:40:37;10.50;;;4.23;;
2872;SDS011;1444;49.166;7.312;2023-10-09T02:43:25;8.83;;;4.33;;
2872;SDS011;1444;49.166;7.312;2023-10-09T02:45:54;18.53;;;4.80;;
2872;SDS011;1444;49.166;7.312;2023-10-09T02:48:21;7.03;;;4.20;;
2872;SDS011;1444;49.166;7.312;2023-10-09T02:50:51;5.13;;;2.90;;
2872;SDS011;1444;49.166;7.312;2023-10-09T02:53:19;12.10;;;3.63;;
2872;SDS011;1444;49.166;7.312;2023-10-09T02:55:54;12.23;;;4.10;;
2872;SDS011;1444;49.166;7.312;2023-10-09T02:58:37;12.80;;;4.00;;
2872;SDS011;1444;49.166;7.312;2023-10-09T03:01:10;17.83;;;3.90;;
2872;SDS011;1444;49.166;7.312;2023-10-09T03:03:38;8.20;;;4.40;;
2872;SDS011;1444;49.166;7.312;2023-10-09T03:06:06;12.07;;;5.07;;
2872;SDS011;1444;49.166;7.312;2023-10-09T03:08:36;14.33;;;4.90;;
2872;SDS011;1444;49.166;7.312;2023-10-09T03:11:03;8.70;;;4.00;;
2872;SDS011;1444;49.166;7.312;2023-10-09T03:13:31;38.90;;;5.67;;
2872;SDS011;1444;49.166;7.312;2023-10-09T03:15:58;9.73;;;4.20;;
2872;SDS011;1444;49.166;7.312;2023-10-09T03:18:28;8.80;;;3.17;;
2872;SDS011;1444;49.166;7.312;2023-10-09T03:20:56;19.33;;;4.80;;
2872;SDS011;1444;49.166;7.312;2023-10-09T03:23:24;15.00;;;3.60;;
2872;SDS011;1444;49.166;7.312;2023-10-09T03:25:50;14.63;;;4.20;;
2872;SDS011;1444;49.166;7.312;2023-10-09T03:28:17;12.53;;;4.17;;
2872;SDS011;1444;49.166;7.312;2023-10-09T03:30:44;5.90;;;3.50;;
2872;SDS011;1444;49.166;7.312;2023-10-09T03:33:13;6.80;;;2.90;;
2872;SDS011;1444;49.166;7.312;2023-10-09T03:35:42;4.80;;;3.43;;
2872;SDS011;1444;49.166;7.312;2023-10-09T03:38:08;5.17;;;3.07;;
2872;SDS011;1444;49.166;7.312;2023-10-09T03:40:41;16.07;;;4.40;;
2872;SDS011;1444;49.166;7.312;2023-10-09T03:43:08;8.00;;;3.70;;
2872;SDS011;1444;49.166;7.312;2023-10-09T03:45:37;6.40;;;3.53;;
2872;SDS011;1444;49.166;7.312;2023-10-09T03:48:11;10.80;;;4.67;;
2872;SDS011;1444;49.166;7.312;2023-10-09T03:50:47;17.67;;;5.73;;
2872;SDS011;1444;49.166;7.312;2023-10-09T03:53:20;5.13;;;3.27;;
2872;SDS011;1444;49.166;7.312;2023-10-09T03:55:47;4.20;;;3.63;;
2872;SDS011;1444;49.166;7.312;2023-10-09T03:58:14;6.63;;;3.67;;
2872;SDS011;1444;49.166;7.312;2023-10-09T04:00:44;8.43;;;4.30;;
2872;SDS011;1444;49.166;7.312;2023-10-09T04:03:11;4.80;;;3.67;;
2872;SDS011;1444;49.166;7.312;2023-10-09T04:05:39;4.83;;;3.70;;
2872;SDS011;1444;49.166;7.312;2023-10-09T04:08:09;7.80;;;3.57;;
2872;SDS011;1444;49.166;7.312;2023-10-09T04:10:44;15.00;;;4.40;;
2872;SDS011;1444;49.166;7.312;2023-10-09T04:13:17;21.87;;;5.67;;
2872;SDS011;1444;49.166;7.312;2023-10-09T04:15:48;5.37;;;4.00;;
2872;SDS011;1444;49.166;7.312;2023-10-09T04:18:17;11.03;;;4.33;;
2872;SDS011;1444;49.166;7.312;2023-10-09T04:20:44;12.13;;;4.40;;
2872;SDS011;1444;49.166;7.312;2023-10-09T04:23:37;12.37;;;5.40;;
2872;SDS011;1444;49.166;7.312;2023-10-09T04:26:25;11.70;;;4.47;;
2872;SDS011;1444;49.166;7.312;2023-10-09T04:28:50;16.03;;;4.27;;
2872;SDS011;1444;49.166;7.312;2023-10-09T04:31:18;13.50;;;4.70;;
2872;SDS011;1444;49.166;7.312;2023-10-09T04:33:47;9.73;;;4.30;;
2872;SDS011;1444;49.166;7.312;2023-10-09T04:36:40;22.03;;;4.43;;
2872;SDS011;1444;49.166;7.312;2023-10-09T04:39:14;10.03;;;3.37;;
2872;SDS011;1444;49.166;7.312;2023-10-09T04:42:00;7.47;;;3.60;;
2872;SDS011;1444;49.166;7.312;2023-10-09T04:44:45;11.83;;;4.93;;
2872;SDS011;1444;49.166;7.312;2023-10-09T04:47:44;8.43;;;4.10;;
2872;SDS011;1444;49.166;7.312;2023-10-09T04:50:31;21.30;;;4.23;;
2872;SDS011;1444;49.166;7.312;2023-10-09T04:53:33;10.57;;;4.20;;
2872;SDS011;1444;49.166;7.312;2023-10-09T04:56:10;9.40;;;3.83;;
2872;SDS011;1444;49.166;7.312;2023-10-09T04:58:41;5.47;;;4.03;;
2872;SDS011;1444;49.166;7.312;2023-10-09T05:01:08;8.37;;;3.20;;
2872;SDS011;1444;49.166;7.312;2023-10-09T05:03:41;18.53;;;4.30;;
2872;SDS011;1444;49.166;7.312;2023-10-09T05:06:17;9.17;;;3.87;;
2872;SDS011;1444;49.166;7.312;2023-10-09T05:08:46;5.50;;;3.03;;
2872;SDS011;1444;49.166;7.312;2023-10-09T05:11:15;13.63;;;4.50;;
2872;SDS011;1444;49.166;7.312;2023-10-09T05:13:59;6.57;;;3.33;;
2872;SDS011;1444;49.166;7.312;2023-10-09T05:16:38;7.93;;;3.30;;
2872;SDS011;1444;49.166;7.312;2023-10-09T05:19:19;7.43;;;3.50;;
2872;SDS011;1444;49.166;7.312;2023-10-09T05:21:58;7.13;;;3.70;;
2872;SDS011;1444;49.166;7.312;2023-10-09T05:24:30;10.07;;;3.80;;
2872;SDS011;1444;49.166;7.312;2023-10-09T05:27:10;6.63;;;3.33;;
2872;SDS011;1444;49.166;7.312;2023-10-09T05:29:43;10.67;;;3.77;;
2872;SDS011;1444;49.166;7.312;2023-10-09T05:32:24;20.67;;;3.43;;
2872;SDS011;1444;49.166;7.312;2023-10-09T05:35:00;16.40;;;4.83;;
2872;SDS011;1444;49.166;7.312;2023-10-09T05:37:40;4.53;;;3.17;;
2872;SDS011;1444;49.166;7.312;2023-10-09T05:40:11;16.00;;;5.10;;
2872;SDS011;1444;49.166;7.312;2023-10-09T05:42:49;12.90;;;3.40;;
2872;SDS011;1444;49.166;7.312;2023-10-09T05:45:28;20.53;;;5.40;;
2872;SDS011;1444;49.166;7.312;2023-10-09T05:48:26;11.23;;;3.70;;
2872;SDS011;1444;49.166;7.312;2023-10-09T05:51:11;11.33;;;3.87;;
2872;SDS011;1444;49.166;7.312;2023-10-09T05:54:00;7.90;;;3.47;;
2872;SDS011;1444;49.166;7.312;2023-10-09T05:56:44;5.87;;;2.80;;
2872;SDS011;1444;49.166;7.312;2023-10-09T05:59:57;12.83;;;4.40;;
2872;SDS011;1444;49.166;7.312;2023-10-09T06:02:41;9.40;;;4.37;;
2872;SDS011;1444;49.166;7.312;2023-10-09T06:05:25;21.33;;;3.80;;
2872;SDS011;1444;49.166;7.312;2023-10-09T06:08:16;9.33;;;3.97;;
2872;SDS011;1444;49.166;7.312;2023-10-09T06:10:50;17.87;;;4.10;;
2872;SDS011;1444;49.166;7.312;2023-10-09T06:13:30;7.10;;;3.00;;
2872;SDS011;1444;49.166;7.312;2023-10-09T06:16:05;5.90;;;2.80;;
2872;SDS011;1444;49.166;7.312;2023-10-09T06:18:44;8.03;;;3.77;;
2872;SDS011;1444;49.166;7.312;2023-10-09T06:21:19;10.37;;;3.57;;
2872;SDS011;1444;49.166;7.312;2023-10-09T06:24:00;15.33;;;4.97;;
2872;SDS011;1444;49.166;7.312;2023-10-09T06:26:41;11.13;;;3.70;;
2872;SDS011;1444;49.166;7.312;2023-10-09T06:29:17;19.10;;;3.73;;
2872;SDS011;1444;49.166;7.312;2023-10-09T06:32:02;9.47;;;3.50;;
2872;SDS011;1444;49.166;7.312;2023-10-09T06:34:49;7.73;;;4.03;;
2872;SDS011;1444;49.166;7.312;2023-10-09T06:37:17;12.10;;;3.50;;
2872;SDS011;1444;49.166;7.312;2023-10-09T06:39:59;20.17;;;5.27;;
2872;SDS011;1444;49.166;7.312;2023-10-09T06:42:57;39.37;;;5.50;;
2872;SDS011;1444;49.166;7.312;2023-10-09T06:45:23;14.63;;;4.63;;
2872;SDS011;1444;49.166;7.312;2023-10-09T06:48:10;20.47;;;4.67;;
2872;SDS011;1444;49.166;7.312;2023-10-09T06:50:50;15.63;;;4.70;;
2872;SDS011;1444;49.166;7.312;2023-10-09T06:53:29;7.00;;;3.53;;
2872;SDS011;1444;49.166;7.312;2023-10-09T06:56:10;10.73;;;4.00;;
2872;SDS011;1444;49.166;7.312;2023-10-09T06:58:48;15.20;;;6.00;;
2872;SDS011;1444;49.166;7.312;2023-10-09T07:01:14;13.90;;;4.47;;
2872;SDS011;1444;49.166;7.312;2023-10-09T07:03:55;22.20;;;4.00;;
2872;SDS011;1444;49.166;7.312;2023-10-09T07:06:25;11.77;;;3.50;;
2872;SDS011;1444;49.166;7.312;2023-10-09T07:09:10;27.03;;;5.73;;
2872;SDS011;1444;49.166;7.312;2023-10-09T07:11:46;6.20;;;3.63;;
2872;SDS011;1444;49.166;7.312;2023-10-09T07:14:24;15.97;;;5.00;;
2872;SDS011;1444;49.166;7.312;2023-10-09T07:17:09;18.93;;;4.67;;
2872;SDS011;1444;49.166;7.312;2023-10-09T07:19:48;12.43;;;4.60;;
2872;SDS011;1444;49.166;7.312;2023-10-09T07:22:33;27.83;;;4.03;;
2872;SDS011;1444;49.166;7.312;2023-10-09T07:25:05;14.13;;;3.90;;
2872;SDS011;1444;49.166;7.312;2023-10-09T07:27:52;32.43;;;6.10;;
2872;SDS011;1444;49.166;7.312;2023-10-09T07:30:20;19.20;;;5.40;;
2872;SDS011;1444;49.166;7.312;2023-10-09T07:33:04;12.50;;;4.17;;
2872;SDS011;1444;49.166;7.312;2023-10-09T07:35:43;16.00;;;5.13;;
2872;SDS011;1444;49.166;7.312;2023-10-09T07:38:16;12.73;;;4.27;;
2872;SDS011;1444;49.166;7.312;2023-10-09T07:40:44;9.73;;;4.60;;
2872;SDS011;1444;49.166;7.312;2023-10-09T07:43:20;7.30;;;2.87;;
2872;SDS011;1444;49.166;7.312;2023-10-09T07:45:52;10.97;;;3.30;;
2872;SDS011;1444;49.166;7.312;2023-10-09T07:48:37;36.37;;;4.77;;
2872;SDS011;1444;49.166;7.312;2023-10-09T07:51:15;15.67;;;4.90;;
2872;SDS011;1444;49.166;7.312;2023-10-09T07:53:46;10.70;;;4.80;;
2872;SDS011;1444;49.166;7.312;2023-10-09T07:56:15;19.10;;;4.90;;
2872;SDS011;1444;49.166;7.312;2023-10-09T07:58:46;19.43;;;4.97;;
2872;SDS011;1444;49.166;7.312;2023-10-09T08:01:14;7.17;;;3.83;;
2872;SDS011;1444;49.166;7.312;2023-10-09T08:03:47;6.50;;;2.87;;
2872;SDS011;1444;49.166;7.312;2023-10-09T08:06:24;10.27;;;4.87;;
2872;SDS011;1444;49.166;7.312;2023-10-09T08:09:07;18.10;;;3.60;;
2872;SDS011;1444;49.166;7.312;2023-10-09T08:11:46;12.90;;;4.23;;
2872;SDS011;1444;49.166;7.312;2023-10-09T08:15:00;10.77;;;3.67;;
2872;SDS011;1444;49.166;7.312;2023-10-09T08:17:45;10.50;;;3.60;;
2872;SDS011;1444;49.166;7.312;2023-10-09T08:20:16;17.07;;;4.77;;
2872;SDS011;1444;49.166;7.312;2023-10-09T08:22:51;8.40;;;2.53;;
2872;SDS011;1444;49.166;7.312;2023-10-09T08:25:21;14.13;;;3.20;;
2872;SDS011;1444;49.166;7.312;2023-10-09T08:27:58;21.93;;;4.23;;
2872;SDS011;1444;49.166;7.312;2023-10-09T08:30:52;38.57;;;5.80;;
2872;SDS011;1444;49.166;7.312;2023-10-09T08:33:29;6.57;;;3.20;;
2872;SDS011;1444;49.166;7.312;2023-10-09T08:36:06;4.37;;;2.67;;
2872;SDS011;1444;49.166;7.312;2023-10-09T08:38:36;12.30;;;3.70;;
2872;SDS011;1444;49.166;7.312;2023-10-09T08:41:06;15.00;;;3.60;;
2872;SDS011;1444;49.166;7.312;2023-10-09T08:43:41;22.00;;;3.70;;
2872;SDS011;1444;49.166;7.312;2023-10-09T08:46:15;9.43;;;3.90;;
2872;SDS011;1444;49.166;7.312;2023-10-09T08:48:45;12.73;;;4.27;;
2872;SDS011;1444;49.166;7.312;2023-10-09T08:51:12;13.20;;;3.23;;
2872;SDS011;1444;49.166;7.312;2023-10-09T08:53:40;6.67;;;3.97;;
2872;SDS011;1444;49.166;7.312;2023-10-09T08:56:09;10.13;;;2.70;;
2872;SDS011;1444;49.166;7.312;2023-10-09T08:58:35;18.87;;;4.37;;
2872;SDS011;1444;49.166;7.312;2023-10-09T09:01:03;9.97;;;4.27;;
2872;SDS011;1444;49.166;7.312;2023-10-09T09:03:37;10.03;;;3.40;;
2872;SDS011;1444;49.166;7.312;2023-10-09T09:06:06;10.60;;;4.10;;
2872;SDS011;1444;49.166;7.312;2023-10-09T09:08:33;7.50;;;2.70;;
2872;SDS011;1444;49.166;7.312;2023-10-09T09:11:03;5.07;;;3.37;;
2872;SDS011;1444;49.166;7.312;2023-10-09T09:13:38;12.83;;;3.00;;
2872;SDS011;1444;49.166;7.312;2023-10-09T09:16:13;13.20;;;4.30;;
2872;SDS011;1444;49.166;7.312;2023-10-09T09:18:49;13.00;;;3.60;;
2872;SDS011;1444;49.166;7.312;2023-10-09T09:21:21;17.03;;;4.33;;
2872;SDS011;1444;49.166;7.312;2023-10-09T09:23:55;9.97;;;3.20;;
2872;SDS011;1444;49.166;7.312;2023-10-09T09:26:34;7.30;;;3.47;;
2872;SDS011;1444;49.166;7.312;2023-10-09T09:29:04;8.23;;;2.70;;
2872;SDS011;1444;49.166;7.312;2023-10-09T09:31:32;20.40;;;3.57;;
2872;SDS011;1444;49.166;7.312;2023-10-09T09:34:03;13.20;;;3.17;;
2872;SDS011;1444;49.166;7.312;2023-10-09T09:36:40;30.87;;;4.90;;
2872;SDS011;1444;49.166;7.312;2023-10-09T09:39:18;18.13;;;3.87;;
2872;SDS011;1444;49.166;7.312;2023-10-09T09:41:53;8.80;;;3.83;;
2872;SDS011;1444;49.166;7.312;2023-10-09T09:44:32;6.70;;;3.47;;
2872;SDS011;1444;49.166;7.312;2023-10-09T09:47:08;17.03;;;3.77;;
2872;SDS011;1444;49.166;7.312;2023-10-09T09:49:37;5.10;;;2.50;;
2872;SDS011;1444;49.166;7.312;2023-10-09T09:52:06;10.03;;;4.47;;
2872;SDS011;1444;49.166;7.312;2023-10-09T09:54:38;11.30;;;2.97;;
2872;SDS011;1444;49.166;7.312;2023-10-09T09:57:07;5.67;;;2.87;;
2872;SDS011;1444;49.166;7.312;2023-10-09T09:59:37;14.50;;;3.30;;
2872;SDS011;1444;49.166;7.312;2023-10-09T10:02:15;23.23;;;3.37;;
2872;SDS011;1444;49.166;7.312;2023-10-09T10:04:50;8.20;;;3.63;;
2872;SDS011;1444;49.166;7.312;2023-10-09T10:07:21;13.90;;;4.07;;
2872;SDS011;1444;49.166;7.312;2023-10-09T10:09:50;11.97;;;3.33;;
2872;SDS011;1444;49.166;7.312;2023-10-09T10:18:34;6.33;;;3.17;;
2872;SDS011;1444;49.166;7.312;2023-10-09T10:21:19;5.10;;;2.77;;
2872;SDS011;1444;49.166;7.312;2023-10-09T10:23:58;5.53;;;2.73;;
2872;SDS011;1444;49.166;7.312;2023-10-09T10:26:35;9.40;;;2.97;;
2872;SDS011;1444;49.166;7.312;2023-10-09T10:29:16;33.27;;;4.40;;
2872;SDS011;1444;49.166;7.312;2023-10-09T10:31:51;14.33;;;3.17;;
2872;SDS011;1444;49.166;7.312;2023-10-09T10:34:21;19.57;;;4.50;;
2872;SDS011;1444;49.166;7.312;2023-10-09T10:36:49;9.40;;;3.50;;
2872;SDS011;1444;49.166;7.312;2023-10-09T10:39:23;9.23;;;2.93;;
2872;SDS011;1444;49.166;7.312;2023-10-09T10:42:08;6.33;;;2.20;;
2872;SDS011;1444;49.166;7.312;2023-10-09T10:44:41;6.83;;;3.97;;
2872;SDS011;1444;49.166;7.312;2023-10-09T10:47:10;9.20;;;3.13;;
2872;SDS011;1444;49.166;7.312;2023-10-09T10:49:49;11.10;;;2.80;;
2872;SDS011;1444;49.166;7.312;2023-10-09T10:52:23;13.50;;;3.47;;
2872;SDS011;1444;49.166;7.312;2023-10-09T10:55:07;17.10;;;3.80;;
2872;SDS011;1444;49.166;7.312;2023-10-09T10:57:42;20.33;;;3.30;;
2872;SDS011;1444;49.166;7.312;2023-10-09T11:00:21;12.90;;;3.63;;
2872;SDS011;1444;49.166;7.312;2023-10-09T11:03:05;22.13;;;3.03;;
2872;SDS011;1444;49.166;7.312;2023-10-09T11:05:44;5.30;;;3.50;;
2872;SDS011;1444;49.166;7.312;2023-10-09T11:08:15;47.70;;;5.10;;
2872;SDS011;1444;49.166;7.312;2023-10-09T11:10:47;12.63;;;3.17;;
2872;SDS011;1444;49.166;7.312;2023-10-09T11:13:22;7.40;;;2.77;;
2872;SDS011;1444;49.166;7.312;2023-10-09T11:16:01;6.00;;;3.20;;
2872;SDS011;1444;49.166;7.312;2023-10-09T11:18:54;15.00;;;4.40;;
2872;SDS011;1444;49.166;7.312;2023-10-09T11:21:22;11.70;;;3.90;;
2872;SDS011;1444;49.166;7.312;2023-10-09T11:23:56;18.13;;;3.57;;
2872;SDS011;1444;49.166;7.312;2023-10-09T11:26:24;6.20;;;3.53;;
2872;SDS011;1444;49.166;7.312;2023-10-09T11:29:05;22.93;;;4.10;;
2872;SDS011;1444;49.166;7.312;2023-10-09T11:31:39;9.07;;;4.13;;
2872;SDS011;1444;49.166;7.312;2023-10-09T11:34:17;8.83;;;3.90;;
2872;SDS011;1444;49.166;7.312;2023-10-09T11:36:54;9.97;;;3.80;;
2872;SDS011;1444;49.166;7.312;2023-10-09T11:39:38;4.40;;;3.30;;
2872;SDS011;1444;49.166;7.312;2023-10-09T11:42:17;22.87;;;4.17;;
2872;SDS011;1444;49.166;7.312;2023-10-09T11:45:00;16.50;;;4.30;;
2872;SDS011;1444;49.166;7.312;2023-10-09T11:47:35;11.50;;;3.20;;
2872;SDS011;1444;49.166;7.312;2023-10-09T11:50:11;13.13;;;3.60;;
2872;SDS011;1444;49.166;7.312;2023-10-09T11:55:35;12.83;;;4.27;;
2872;SDS011;1444;49.166;7.312;2023-10-09T11:58:01;10.93;;;3.30;;
2872;SDS011;1444;49.166;7.312;2023-10-09T12:00:29;8.13;;;3.73;;
2872;SDS011;1444;49.166;7.312;2023-10-09T12:03:09;9.33;;;3.37;;
2872;SDS011;1444;49.166;7.312;2023-10-09T12:05:36;15.20;;;3.23;;
2872;SDS011;1444;49.166;7.312;2023-10-09T12:08:07;19.57;;;4.00;;
2872;SDS011;1444;49.166;7.312;2023-10-09T12:10:34;30.83;;;4.90;;
2872;SDS011;1444;49.166;7.312;2023-10-09T12:13:03;8.37;;;4.17;;
2872;SDS011;1444;49.166;7.312;2023-10-09T12:15:30;12.20;;;4.03;;
2872;SDS011;1444;49.166;7.312;2023-10-09T12:18:02;20.07;;;4.20;;
2872;SDS011;1444;49.166;7.312;2023-10-09T12:20:34;17.80;;;4.90;;
2872;SDS011;1444;49.166;7.312;2023-10-09T12:23:02;9.73;;;4.80;;
2872;SDS011;1444;49.166;7.312;2023-10-09T12:25:30;22.93;;;5.43;;
2872;SDS011;1444;49.166;7.312;2023-10-09T12:27:58;9.47;;;3.50;;
2872;SDS011;1444;49.166;7.312;2023-10-09T12:30:26;9.63;;;4.17;;
2872;SDS011;1444;49.166;7.312;2023-10-09T12:32:54;17.60;;;3.33;;
2872;SDS011;1444;49.166;7.312;2023-10-09T12:35:22;12.00;;;3.87;;
2872;SDS011;1444;49.166;7.312;2023-10-09T12:37:51;35.10;;;4.70;;
2872;SDS011;1444;49.166;7.312;2023-10-09T12:40:20;7.73;;;4.03;;
2872;SDS011;1444;49.166;7.312;2023-10-09T12:42:50;9.57;;;3.73;;
2872;SDS011;1444;49.166;7.312;2023-10-09T12:48:42;7.60;;;3.90;;
2872;SDS011;1444;49.166;7.312;2023-10-09T12:51:11;4.73;;;3.40;;
2872;SDS011;1444;49.166;7.312;2023-10-09T12:53:55;11.67;;;3.27;;
2872;SDS011;1444;49.166;7.312;2023-10-09T12:56:23;13.10;;;4.20;;
2872;SDS011;1444;49.166;7.312;2023-10-09T12:58:57;13.47;;;4.10;;
2872;SDS011;1444;49.166;7.312;2023-10-09T13:01:26;6.30;;;3.43;;
2872;SDS011;1444;49.166;7.312;2023-10-09T13:03:57;5.70;;;3.40;;
2872;SDS011;1444;49.166;7.312;2023-10-09T13:06:25;13.57;;;3.77;;
2872;SDS011;1444;49.166;7.312;2023-10-09T13:08:51;14.00;;;4.40;;
2872;SDS011;1444;49.166;7.312;2023-10-09T13:11:26;6.97;;;3.23;;
2872;SDS011;1444;49.166;7.312;2023-10-09T13:13:53;11.97;;;4.10;;
2872;SDS011;1444;49.166;7.312;2023-10-09T13:16:24;13.13;;;4.80;;
2872;SDS011;1444;49.166;7.312;2023-10-09T13:18:53;18.90;;;3.60;;
2872;SDS011;1444;49.166;7.312;2023-10-09T13:21:21;7.03;;;3.63;;
2872;SDS011;1444;49.166;7.312;2023-10-09T13:23:49;9.67;;;3.57;;
2872;SDS011;1444;49.166;7.312;2023-10-09T13:26:17;42.47;;;5.33;;
2872;SDS011;1444;49.166;7.312;2023-10-09T13:28:46;8.97;;;3.70;;
2872;SDS011;1444;49.166;7.312;2023-10-09T13:31:13;10.37;;;4.40;;
2872;SDS011;1444;49.166;7.312;2023-10-09T13:33:40;10.60;;;4.07;;
2872;SDS011;1444;49.166;7.312;2023-10-09T13:36:08;19.00;;;3.90;;
2872;SDS011;1444;49.166;7.312;2023-10-09T13:38:41;6.83;;;4.27;;
2872;SDS011;1444;49.166;7.312;2023-10-09T13:41:09;15.03;;;4.10;;
2872;SDS011;1444;49.166;7.312;2023-10-09T13:43:38;9.37;;;4.40;;
2872;SDS011;1444;49.166;7.312;2023-10-09T13:46:09;11.90;;;4.37;;
2872;SDS011;1444;49.166;7.312;2023-10-09T13:48:37;16.53;;;3.53;;
2872;SDS011;1444;49.166;7.312;2023-10-09T13:51:06;7.43;;;3.90;;
2872;SDS011;1444;49.166;7.312;2023-10-09T13:53:39;20.60;;;4.33;;
2872;SDS011;1444;49.166;7.312;2023-10-09T13:56:10;12.43;;;4.30;;
2872;SDS011;1444;49.166;7.312;2023-10-09T13:58:44;10.20;;;4.13;;
2872;SDS011;1444;49.166;7.312;2023-10-09T14:01:12;17.57;;;4.80;;
2872;SDS011;1444;49.166;7.312;2023-10-09T14:03:51;6.60;;;3.50;;
2872;SDS011;1444;49.166;7.312;2023-10-09T14:06:22;9.60;;;4.10;;
2872;SDS011;1444;49.166;7.312;2023-10-09T14:08:57;13.33;;;4.30;;
2872;SDS011;1444;49.166;7.312;2023-10-09T14:15:38;8.93;;;4.00;;
2872;SDS011;1444;49.166;7.312;2023-10-09T14:18:06;7.20;;;4.43;;
2872;SDS011;1444;49.166;7.312;2023-10-09T14:20:34;31.03;;;5.90;;
2872;SDS011;1444;49.166;7.312;2023-10-09T14:23:02;9.47;;;3.70;;
2872;SDS011;1444;49.166;7.312;2023-10-09T14:25:32;6.63;;;3.47;;
2872;SDS011;1444;49.166;7.312;2023-10-09T14:28:02;15.20;;;5.00;;
2872;SDS011;1444;49.166;7.312;2023-10-09T14:30:32;11.90;;;4.20;;
2872;SDS011;1444;49.166;7.312;2023-10-09T14:33:08;11.43;;;3.70;;
2872;SDS011;1444;49.166;7.312;2023-10-09T14:35:38;8.60;;;4.40;;
2872;SDS011;1444;49.166;7.312;2023-10-09T14:38:05;7.70;;;4.17;;
2872;SDS011;1444;49.166;7.312;2023-10-09T14:40:36;9.47;;;4.50;;
2872;SDS011;1444;49.166;7.312;2023-10-09T14:43:06;11.03;;;4.00;;
2872;SDS011;1444;49.166;7.312;2023-10-09T14:45:44;7.70;;;2.93;;
2872;SDS011;1444;49.166;7.312;2023-10-09T14:48:14;23.00;;;4.67;;
2872;SDS011;1444;49.166;7.312;2023-10-09T14:50:46;14.10;;;4.20;;
2872;SDS011;1444;49.166;7.312;2023-10-09T14:53:14;16.33;;;4.80;;
2872;SDS011;1444;49.166;7.312;2023-10-09T14:55:42;17.33;;;4.77;;
2872;SDS011;1444;49.166;7.312;2023-10-09T14:58:10;15.70;;;4.47;;
2872;SDS011;1444;49.166;7.312;2023-10-09T15:00:37;8.30;;;3.60;;
2872;SDS011;1444;49.166;7.312;2023-10-09T15:03:11;7.77;;;4.00;;
2872;SDS011;1444;49.166;7.312;2023-10-09T15:05:41;10.80;;;4.90;;
2872;SDS011;1444;49.166;7.312;2023-10-09T15:08:08;11.00;;;5.20;;
2872;SDS011;1444;49.166;7.312;2023-10-09T15:10:36;27.70;;;10.40;;
2872;SDS011;1444;49.166;7.312;2023-10-09T15:13:10;19.73;;;9.83;;
2872;SDS011;1444;49.166;7.312;2023-10-09T15:15:39;49.57;;;14.70;;
2872;SDS011;1444;49.166;7.312;2023-10-09T15:18:07;29.53;;;10.13;;
2872;SDS011;1444;49.166;7.312;2023-10-09T15:20:37;26.73;;;11.80;;
2872;SDS011;1444;49.166;7.312;2023-10-09T15:23:06;41.80;;;15.30;;
2872;SDS011;1444;49.166;7.312;2023-10-09T15:25:34;32.00;;;13.10;;
2872;SDS011;1444;49.166;7.312;2023-10-09T15:28:04;26.07;;;10.57;;
2872;SDS011;1444;49.166;7.312;2023-10-09T15:30:32;15.03;;;8.37;;
2872;SDS011;1444;49.166;7.312;2023-10-09T15:32:59;18.00;;;8.90;;
2872;SDS011;1444;49.166;7.312;2023-10-09T15:35:27;16.03;;;8.53;;
2872;SDS011;1444;49.166;7.312;2023-10-09T15:37:55;14.53;;;8.57;;
2872;SDS011;1444;49.166;7.312;2023-10-09T15:40:23;20.33;;;9.30;;
2872;SDS011;1444;49.166;7.312;2023-10-09T15:42:50;12.93;;;6.97;;
2872;SDS011;1444;49.166;7.312;2023-10-09T15:45:21;29.70;;;6.30;;
2872;SDS011;1444;49.166;7.312;2023-10-09T15:47:48;19.87;;;5.07;;
2872;SDS011;1444;49.166;7.312;2023-10-09T15:50:16;25.03;;;5.47;;
2872;SDS011;1444;49.166;7.312;2023-10-09T15:52:44;13.00;;;4.80;;
2872;SDS011;1444;49.166;7.312;2023-10-09T15:55:12;9.53;;;4.53;;
2872;SDS011;1444;49.166;7.312;2023-10-09T15:57:41;5.43;;;3.40;;
2872;SDS011;1444;49.166;7.312;2023-10-09T16:00:08;18.00;;;4.27;;